< Cyclone 201403 2014 Season Cyclone 201407 >
Cyclone 201404 (Christine)
General InformationTrack Information on Google MapsDetailed Wind InformationList of All Images || ResourceGoogle EarthGE AnimationAtom FeedGeoJSON
Detalied Best Track (Time Zone = UTC)
Year Month Day Hour Lat. Long. Pressure (hPa) Wind (kt) Class Image Chart
2013 12 25 14 -11.9 124.0 1005 20 2 Image --
2013 12 25 18 -12.1 123.6 1004 20 2 Image --
2013 12 26 00 -12.4 123.0 1002 25 2 Image --
2013 12 26 06 -12.4 123.0 1003 30 2 Image --
2013 12 26 12 -12.7 122.7 1003 30 2 Image --
2013 12 26 18 -13.0 122.5 1002 30 2 Image --
2013 12 27 00 -13.9 122.2 1002 30 2 Image --
2013 12 27 06 -14.1 122.0 998 30 2 Image --
2013 12 27 12 -14.3 121.8 990 35 3 Image --
2013 12 27 18 -14.5 121.7 990 35 3 Image --
2013 12 28 00 -14.8 121.6 992 35 3 Image --
2013 12 28 06 -15.2 121.5 990 40 3 Image --
2013 12 28 12 -15.7 120.8 990 40 3 Image --
2013 12 28 18 -16.0 120.4 986 45 3 Image --
2013 12 29 00 -16.5 120.2 984 50 4 Image --
2013 12 29 06 -17.2 119.6 982 55 4 Image --
2013 12 29 07 -17.3 119.6 982 56.25 0 Image --
2013 12 29 12 -17.7 119.3 976 60 4 Image --
2013 12 29 15 -17.9 119.2 968 65 5 Image --
2013 12 29 18 -18.4 119.0 970 65 5 Image --
2013 12 29 21 -18.6 118.9 969 66.6667 0 Image --
2013 12 30 00 -18.8 118.6 966 70 5 Image --
2013 12 30 03 -19.0 118.4 967 70 5 Image --
2013 12 30 06 -19.5 118.2 963 75 5 Image --
2013 12 30 09 -19.8 118.0 959 80 5 Image --
2013 12 30 12 -20.3 117.7 948 90 5 Image --
2013 12 30 15 -20.6 117.4 948 90 5 Image --
2013 12 30 18 -21.0 117.1 965 70 5 Image --
2013 12 30 21 -21.4 117.0 973 60 4 Image --
2013 12 31 00 -22.0 117.0 981 50 4 Image --
2013 12 31 06 -23.8 117.5 989 40 3 Image --
2013 12 31 12 -25.0 118.8 993 30 2 Image --
2013 12 31 18 -26.0 120.3 992 30 2 Image --
2014 1 1 00 -27.4 122.4 998 25 2 Image --
2014 1 1 06 -29.0 124.5 997 25 2 Image --
< Cyclone 201403 2014 Season Cyclone 201407 >

Help